GLO1366 SBSP-SBRP
Flight info
| Callsign | GLO1366 |
|---|---|
| Flight time | 0h 43m |
| Altitude | 26000 |
| Route | GERTU UZ25 KOMTO |
| Aircraft | B738/M-SDE2E3FGHIRWXY/LB1 |
Departure
| Time | 2026-04-26 11:32 |
|---|---|
| Airport | Congonhas–Deputado Freitas Nobre Airport (SBSP) |
Arrival
| Time | 2026-04-26 12:16 |
|---|---|
| Airport | Leite Lopes Airport (SBRP) |
| Time | Latitude | Longitude | Altitude | Speed | Heading |
|---|---|---|---|---|---|
| 2026-04-26 11:02 | -23.62966 | -46.65840 | 2621 ft | 0 kts | 328° |
| 2026-04-26 11:21 | -23.62977 | -46.65832 | 2621 ft | 2 kts | 327° |
| 2026-04-26 11:22 | -23.62991 | -46.65826 | 2621 ft | 2 kts | 358° |
| 2026-04-26 11:22 | -23.63005 | -46.65829 | 2621 ft | 2 kts | 21° |
| 2026-04-26 11:22 | -23.63018 | -46.65837 | 2621 ft | 2 kts | 46° |
| 2026-04-26 11:22 | -23.63023 | -46.65844 | 2621 ft | 1 kts | 62° |
| 2026-04-26 11:23 | -23.63025 | -46.65848 | 2621 ft | 0 kts | 58° |
| 2026-04-26 11:26 | -23.63022 | -46.65842 | 2620 ft | 3 kts | 58° |
| 2026-04-26 11:27 | -23.62988 | -46.65786 | 2621 ft | 12 kts | 57° |
| 2026-04-26 11:27 | -23.62949 | -46.65720 | 2623 ft | 8 kts | 57° |
| 2026-04-26 11:27 | -23.62939 | -46.65704 | 2623 ft | 0 kts | 57° |
| 2026-04-26 11:28 | -23.62915 | -46.65664 | 2623 ft | 11 kts | 58° |
| 2026-04-26 11:28 | -23.62895 | -46.65611 | 2624 ft | 5 kts | 95° |
| 2026-04-26 11:28 | -23.62921 | -46.65575 | 2625 ft | 8 kts | 145° |
| 2026-04-26 11:28 | -23.62986 | -46.65530 | 2627 ft | 10 kts | 151° |
| 2026-04-26 11:29 | -23.63038 | -46.65512 | 2628 ft | 5 kts | 176° |
| 2026-04-26 11:29 | -23.63081 | -46.65503 | 2628 ft | 9 kts | 157° |
| 2026-04-26 11:29 | -23.63161 | -46.65448 | 2629 ft | 18 kts | 146° |
| 2026-04-26 11:29 | -23.63270 | -46.65368 | 2628 ft | 17 kts | 147° |
| 2026-04-26 11:30 | -23.63368 | -46.65300 | 2627 ft | 15 kts | 148° |
| 2026-04-26 11:30 | -23.63424 | -46.65264 | 2626 ft | 12 kts | 149° |
| 2026-04-26 11:30 | -23.63493 | -46.65213 | 2625 ft | 6 kts | 130° |
| 2026-04-26 11:30 | -23.63494 | -46.65149 | 2624 ft | 11 kts | 64° |
| 2026-04-26 11:31 | -23.63444 | -46.65106 | 2626 ft | 6 kts | 337° |
| 2026-04-26 11:31 | -23.63430 | -46.65114 | 2627 ft | 0 kts | 324° |
| 2026-04-26 11:31 | -23.63430 | -46.65115 | 2627 ft | 3 kts | 324° |
| 2026-04-26 11:31 | -23.63148 | -46.65312 | 2631 ft | 91 kts | 329° |
| 2026-04-26 11:32 | -23.62381 | -46.65846 | 2619 ft | 166 kts | 328° |
| 2026-04-26 11:32 | -23.61410 | -46.66506 | 3547 ft | 161 kts | 328° |
| 2026-04-26 11:32 | -23.60462 | -46.67193 | 4278 ft | 173 kts | 321° |
| 2026-04-26 11:32 | -23.59777 | -46.68290 | 4957 ft | 181 kts | 289° |
| 2026-04-26 11:33 | -23.59493 | -46.69655 | 5598 ft | 192 kts | 285° |
| 2026-04-26 11:33 | -23.59106 | -46.71074 | 6232 ft | 203 kts | 290° |
| 2026-04-26 11:33 | -23.58600 | -46.72560 | 6832 ft | 217 kts | 292° |
| 2026-04-26 11:33 | -23.58045 | -46.74147 | 7343 ft | 235 kts | 292° |
| 2026-04-26 11:34 | -23.57460 | -46.75840 | 7456 ft | 245 kts | 291° |
| 2026-04-26 11:34 | -23.57077 | -46.77721 | 7462 ft | 266 kts | 271° |
| 2026-04-26 11:34 | -23.57615 | -46.79677 | 7465 ft | 277 kts | 240° |
| 2026-04-26 11:34 | -23.59010 | -46.81137 | 7464 ft | 285 kts | 213° |
| 2026-04-26 11:35 | -23.60814 | -46.82070 | 7464 ft | 286 kts | 211° |
| 2026-04-26 11:35 | -23.62344 | -46.83427 | 7463 ft | 279 kts | 234° |
| 2026-04-26 11:35 | -23.63528 | -46.85112 | 7497 ft | 286 kts | 231° |
| 2026-04-26 11:35 | -23.64581 | -46.86048 | 7957 ft | 300 kts | 213° |
| 2026-04-26 11:36 | -23.67065 | -46.87240 | 9609 ft | 295 kts | 204° |
| 2026-04-26 11:36 | -23.68999 | -46.88049 | 10542 ft | 300 kts | 205° |
| 2026-04-26 11:36 | -23.70979 | -46.88963 | 11184 ft | 314 kts | 208° |
| 2026-04-26 11:36 | -23.72892 | -46.90144 | 11817 ft | 325 kts | 220° |
| 2026-04-26 11:37 | -23.74436 | -46.91945 | 12756 ft | 323 kts | 239° |
| 2026-04-26 11:37 | -23.75385 | -46.94120 | 13681 ft | 323 kts | 252° |
| 2026-04-26 11:37 | -23.75919 | -46.96481 | 14582 ft | 324 kts | 262° |
| 2026-04-26 11:37 | -23.75972 | -46.98938 | 15461 ft | 327 kts | 274° |
| 2026-04-26 11:38 | -23.75699 | -47.01397 | 16328 ft | 330 kts | 277° |
| 2026-04-26 11:38 | -23.75331 | -47.03886 | 17162 ft | 333 kts | 278° |
| 2026-04-26 11:38 | -23.74893 | -47.06353 | 17941 ft | 337 kts | 284° |
| 2026-04-26 11:38 | -23.74039 | -47.08756 | 18715 ft | 341 kts | 295° |
| 2026-04-26 11:39 | -23.72718 | -47.10933 | 19463 ft | 347 kts | 307° |
| 2026-04-26 11:39 | -23.70965 | -47.12753 | 20175 ft | 353 kts | 319° |
| 2026-04-26 11:39 | -23.68874 | -47.14144 | 20896 ft | 359 kts | 330° |
| 2026-04-26 11:39 | -23.66487 | -47.15073 | 21561 ft | 366 kts | 341° |
| 2026-04-26 11:40 | -23.63973 | -47.15622 | 22200 ft | 371 kts | 346° |
| 2026-04-26 11:40 | -23.61418 | -47.16038 | 22960 ft | 370 kts | 347° |
| 2026-04-26 11:40 | -23.58888 | -47.16442 | 23790 ft | 367 kts | 346° |
| 2026-04-26 11:40 | -23.56385 | -47.16872 | 24515 ft | 366 kts | 345° |
| 2026-04-26 11:41 | -23.53877 | -47.17340 | 25209 ft | 365 kts | 344° |
| 2026-04-26 11:42 | -23.36439 | -47.21045 | 26091 ft | 362 kts | 343° |
| 2026-04-26 11:43 | -23.33948 | -47.21590 | 26089 ft | 361 kts | 343° |
| 2026-04-26 11:43 | -23.31473 | -47.22133 | 26086 ft | 362 kts | 342° |
| 2026-04-26 11:43 | -23.28996 | -47.22675 | 26084 ft | 361 kts | 343° |
| 2026-04-26 11:43 | -23.26500 | -47.23220 | 26078 ft | 361 kts | 342° |
| 2026-04-26 11:44 | -23.24032 | -47.23759 | 26077 ft | 362 kts | 343° |
| 2026-04-26 11:44 | -23.21544 | -47.24302 | 26077 ft | 362 kts | 343° |
| 2026-04-26 11:44 | -23.19067 | -47.24842 | 26075 ft | 362 kts | 343° |
| 2026-04-26 11:44 | -23.16603 | -47.25379 | 26077 ft | 364 kts | 343° |
| 2026-04-26 11:45 | -23.14118 | -47.25920 | 26077 ft | 362 kts | 343° |
| 2026-04-26 11:45 | -23.11623 | -47.26463 | 26077 ft | 363 kts | 343° |
| 2026-04-26 11:45 | -23.09118 | -47.27008 | 26075 ft | 364 kts | 343° |
| 2026-04-26 11:45 | -23.06632 | -47.27549 | 26074 ft | 362 kts | 343° |
| 2026-04-26 11:46 | -23.04164 | -47.28085 | 26074 ft | 363 kts | 343° |
| 2026-04-26 11:46 | -23.01689 | -47.28624 | 26076 ft | 363 kts | 343° |
| 2026-04-26 11:46 | -22.99204 | -47.29163 | 26077 ft | 362 kts | 343° |
| 2026-04-26 11:46 | -22.96730 | -47.29699 | 26078 ft | 362 kts | 343° |
| 2026-04-26 11:47 | -22.94258 | -47.30235 | 26079 ft | 362 kts | 343° |
| 2026-04-26 11:47 | -22.91781 | -47.30772 | 26074 ft | 362 kts | 343° |
| 2026-04-26 11:47 | -22.89291 | -47.31313 | 26074 ft | 362 kts | 343° |
| 2026-04-26 11:47 | -22.86792 | -47.31856 | 26076 ft | 362 kts | 343° |
| 2026-04-26 11:48 | -22.84316 | -47.32394 | 26080 ft | 363 kts | 343° |
| 2026-04-26 11:48 | -22.81836 | -47.32932 | 26081 ft | 363 kts | 343° |
| 2026-04-26 11:48 | -22.79337 | -47.33473 | 26088 ft | 363 kts | 343° |
| 2026-04-26 11:48 | -22.76854 | -47.34010 | 26086 ft | 363 kts | 343° |
| 2026-04-26 11:49 | -22.74341 | -47.34554 | 26085 ft | 364 kts | 343° |
| 2026-04-26 11:49 | -22.71868 | -47.35089 | 26089 ft | 364 kts | 343° |
| 2026-04-26 11:49 | -22.69370 | -47.35679 | 26090 ft | 361 kts | 340° |
| 2026-04-26 11:49 | -22.67008 | -47.36560 | 26090 ft | 356 kts | 330° |
| 2026-04-26 11:50 | -22.64887 | -47.37879 | 26092 ft | 352 kts | 322° |
| 2026-04-26 11:50 | -22.62909 | -47.39427 | 26094 ft | 350 kts | 319° |
| 2026-04-26 11:50 | -22.60979 | -47.41059 | 26099 ft | 351 kts | 318° |
| 2026-04-26 11:50 | -22.59064 | -47.42708 | 26098 ft | 350 kts | 317° |
| 2026-04-26 11:51 | -22.57148 | -47.44353 | 26096 ft | 351 kts | 317° |
| 2026-04-26 11:51 | -22.55211 | -47.46001 | 26097 ft | 351 kts | 318° |
| 2026-04-26 11:51 | -22.53286 | -47.47626 | 26098 ft | 351 kts | 318° |
| 2026-04-26 11:51 | -22.51349 | -47.49254 | 26097 ft | 351 kts | 318° |
| 2026-04-26 11:52 | -22.49410 | -47.50877 | 26096 ft | 351 kts | 318° |
| 2026-04-26 11:52 | -22.48112 | -47.51962 | 26098 ft | 352 kts | 319° |
| 2026-04-26 11:52 | -22.45524 | -47.54106 | 26100 ft | 352 kts | 320° |
| 2026-04-26 11:52 | -22.43491 | -47.55567 | 26100 ft | 355 kts | 327° |
| 2026-04-26 11:53 | -22.41167 | -47.56592 | 26103 ft | 362 kts | 340° |
| 2026-04-26 11:53 | -22.38679 | -47.57169 | 26105 ft | 365 kts | 345° |
| 2026-04-26 11:53 | -22.36188 | -47.57586 | 26105 ft | 365 kts | 347° |
| 2026-04-26 11:54 | -22.31135 | -47.58335 | 26105 ft | 365 kts | 347° |
| 2026-04-26 11:54 | -22.28606 | -47.58720 | 26108 ft | 365 kts | 347° |
| 2026-04-26 11:54 | -22.26068 | -47.59119 | 26111 ft | 365 kts | 347° |
| 2026-04-26 11:54 | -22.23565 | -47.59522 | 26110 ft | 365 kts | 347° |
| 2026-04-26 11:55 | -22.21040 | -47.59935 | 26110 ft | 365 kts | 346° |
| 2026-04-26 11:55 | -22.18514 | -47.60354 | 26112 ft | 366 kts | 346° |
| 2026-04-26 11:55 | -22.15982 | -47.60775 | 26095 ft | 364 kts | 346° |
| 2026-04-26 11:55 | -22.13501 | -47.61187 | 25965 ft | 354 kts | 346° |
| 2026-04-26 11:56 | -22.11093 | -47.61586 | 25664 ft | 353 kts | 346° |
| 2026-04-26 11:56 | -22.08624 | -47.62002 | 25226 ft | 361 kts | 346° |
| 2026-04-26 11:56 | -22.06132 | -47.62422 | 24761 ft | 359 kts | 347° |
| 2026-04-26 11:56 | -22.03686 | -47.62831 | 24312 ft | 356 kts | 347° |
| 2026-04-26 11:57 | -22.01248 | -47.63237 | 23864 ft | 353 kts | 347° |
| 2026-04-26 11:57 | -21.98808 | -47.63644 | 23419 ft | 350 kts | 347° |
| 2026-04-26 11:57 | -21.96426 | -47.64042 | 22977 ft | 348 kts | 347° |
| 2026-04-26 11:57 | -21.94031 | -47.64442 | 22539 ft | 345 kts | 347° |
| 2026-04-26 11:58 | -21.91651 | -47.64839 | 22112 ft | 343 kts | 347° |
| 2026-04-26 11:58 | -21.89302 | -47.65232 | 21693 ft | 342 kts | 347° |
| 2026-04-26 11:58 | -21.86950 | -47.65626 | 21260 ft | 342 kts | 347° |
| 2026-04-26 11:58 | -21.84596 | -47.66020 | 20820 ft | 341 kts | 347° |
| 2026-04-26 11:59 | -21.82224 | -47.66416 | 20374 ft | 341 kts | 347° |
| 2026-04-26 11:59 | -21.79892 | -47.66806 | 19937 ft | 340 kts | 347° |
| 2026-04-26 11:59 | -21.77526 | -47.67200 | 19492 ft | 340 kts | 348° |
| 2026-04-26 11:59 | -21.75218 | -47.67584 | 19061 ft | 338 kts | 348° |
| 2026-04-26 12:00 | -21.72874 | -47.67974 | 18625 ft | 337 kts | 348° |
| 2026-04-26 12:00 | -21.70553 | -47.68361 | 18196 ft | 336 kts | 348° |
| 2026-04-26 12:00 | -21.68236 | -47.68747 | 17761 ft | 335 kts | 348° |
| 2026-04-26 12:00 | -21.65911 | -47.69134 | 17330 ft | 333 kts | 348° |
| 2026-04-26 12:01 | -21.63649 | -47.69510 | 16904 ft | 332 kts | 348° |
| 2026-04-26 12:01 | -21.61364 | -47.69918 | 16434 ft | 331 kts | 346° |
| 2026-04-26 12:01 | -21.59135 | -47.70517 | 15974 ft | 329 kts | 341° |
| 2026-04-26 12:01 | -21.56961 | -47.71280 | 15547 ft | 326 kts | 338° |
| 2026-04-26 12:02 | -21.54812 | -47.72113 | 15122 ft | 324 kts | 338° |
| 2026-04-26 12:02 | -21.52706 | -47.72945 | 14710 ft | 322 kts | 338° |
| 2026-04-26 12:02 | -21.50600 | -47.73769 | 14295 ft | 320 kts | 339° |
| 2026-04-26 12:02 | -21.48512 | -47.74571 | 13885 ft | 318 kts | 339° |
| 2026-04-26 12:03 | -21.46431 | -47.75361 | 13478 ft | 316 kts | 340° |
| 2026-04-26 12:03 | -21.44364 | -47.76141 | 13075 ft | 314 kts | 340° |
| 2026-04-26 12:03 | -21.42294 | -47.76921 | 12667 ft | 312 kts | 340° |
| 2026-04-26 12:03 | -21.40230 | -47.77698 | 12256 ft | 310 kts | 340° |
| 2026-04-26 12:04 | -21.38213 | -47.78458 | 11860 ft | 308 kts | 340° |
| 2026-04-26 12:04 | -21.36162 | -47.79230 | 11453 ft | 307 kts | 340° |
| 2026-04-26 12:04 | -21.34155 | -47.79986 | 11071 ft | 305 kts | 340° |
| 2026-04-26 12:04 | -21.32168 | -47.80734 | 10673 ft | 303 kts | 340° |
| 2026-04-26 12:05 | -21.30165 | -47.81488 | 10262 ft | 300 kts | 340° |
| 2026-04-26 12:05 | -21.28230 | -47.82215 | 9951 ft | 289 kts | 340° |
| 2026-04-26 12:05 | -21.26343 | -47.82925 | 9649 ft | 284 kts | 340° |
| 2026-04-26 12:05 | -21.24488 | -47.83623 | 9289 ft | 283 kts | 340° |
| 2026-04-26 12:06 | -21.22629 | -47.84323 | 8931 ft | 275 kts | 340° |
| 2026-04-26 12:06 | -21.20846 | -47.84993 | 8583 ft | 267 kts | 340° |
| 2026-04-26 12:06 | -21.19135 | -47.85636 | 8256 ft | 259 kts | 340° |
| 2026-04-26 12:06 | -21.17444 | -47.86272 | 7919 ft | 252 kts | 340° |
| 2026-04-26 12:07 | -21.15805 | -47.86888 | 7576 ft | 246 kts | 340° |
| 2026-04-26 12:07 | -21.14214 | -47.87486 | 7219 ft | 237 kts | 340° |
| 2026-04-26 12:07 | -21.12679 | -47.88062 | 6929 ft | 225 kts | 340° |
| 2026-04-26 12:07 | -21.11228 | -47.88607 | 6656 ft | 215 kts | 340° |
| 2026-04-26 12:08 | -21.09831 | -47.89131 | 6384 ft | 206 kts | 340° |
| 2026-04-26 12:08 | -21.08496 | -47.89633 | 6122 ft | 198 kts | 340° |
| 2026-04-26 12:08 | -21.07236 | -47.90106 | 5921 ft | 187 kts | 340° |
| 2026-04-26 12:08 | -21.06058 | -47.90548 | 5820 ft | 171 kts | 340° |
| 2026-04-26 12:09 | -21.04921 | -47.90975 | 5779 ft | 173 kts | 340° |
| 2026-04-26 12:09 | -21.03773 | -47.91406 | 5730 ft | 173 kts | 340° |
| 2026-04-26 12:09 | -21.02639 | -47.91832 | 5673 ft | 173 kts | 340° |
| 2026-04-26 12:09 | -21.01479 | -47.92144 | 5614 ft | 172 kts | 356° |
| 2026-04-26 12:10 | -21.00303 | -47.91879 | 5548 ft | 176 kts | 25° |
| 2026-04-26 12:10 | -20.99306 | -47.91109 | 5383 ft | 179 kts | 43° |
| 2026-04-26 12:10 | -20.98632 | -47.89986 | 5181 ft | 180 kts | 68° |
| 2026-04-26 12:10 | -20.98303 | -47.88703 | 5003 ft | 180 kts | 72° |
| 2026-04-26 12:11 | -20.97969 | -47.87408 | 4828 ft | 179 kts | 70° |
| 2026-04-26 12:11 | -20.97614 | -47.86142 | 4672 ft | 177 kts | 70° |
| 2026-04-26 12:11 | -20.97289 | -47.84872 | 4559 ft | 178 kts | 77° |
| 2026-04-26 12:11 | -20.97404 | -47.83557 | 4443 ft | 179 kts | 111° |
| 2026-04-26 12:12 | -20.98155 | -47.82583 | 4328 ft | 167 kts | 144° |
| 2026-04-26 12:12 | -20.99201 | -47.82084 | 4208 ft | 165 kts | 160° |
| 2026-04-26 12:12 | -21.00303 | -47.81686 | 4058 ft | 164 kts | 160° |
| 2026-04-26 12:12 | -21.01010 | -47.81435 | 3944 ft | 159 kts | 161° |
| 2026-04-26 12:13 | -21.02418 | -47.80953 | 3747 ft | 158 kts | 162° |
| 2026-04-26 12:13 | -21.03478 | -47.80603 | 3635 ft | 158 kts | 162° |
| 2026-04-26 12:13 | -21.04533 | -47.80259 | 3453 ft | 159 kts | 162° |
| 2026-04-26 12:13 | -21.05585 | -47.79921 | 3232 ft | 156 kts | 162° |
| 2026-04-26 12:14 | -21.06637 | -47.79584 | 3024 ft | 156 kts | 162° |
| 2026-04-26 12:14 | -21.07664 | -47.79256 | 2819 ft | 154 kts | 162° |
| 2026-04-26 12:14 | -21.08691 | -47.78934 | 2623 ft | 155 kts | 163° |
| 2026-04-26 12:14 | -21.09728 | -47.78612 | 2493 ft | 154 kts | 162° |
| 2026-04-26 12:15 | -21.10764 | -47.78272 | 2287 ft | 157 kts | 161° |
| 2026-04-26 12:15 | -21.11817 | -47.77927 | 2039 ft | 156 kts | 162° |
| 2026-04-26 12:15 | -21.12846 | -47.77593 | 1828 ft | 146 kts | 162° |
| 2026-04-26 12:15 | -21.13638 | -47.77332 | 1820 ft | 80 kts | 163° |
| 2026-04-26 12:16 | -21.13945 | -47.77234 | 1822 ft | 25 kts | 166° |
| 2026-04-26 12:16 | -21.14107 | -47.77187 | 1824 ft | 21 kts | 164° |
| 2026-04-26 12:16 | -21.14226 | -47.77136 | 1825 ft | 15 kts | 136° |
| 2026-04-26 12:16 | -21.14280 | -47.77118 | 1825 ft | 7 kts | 205° |
| 2026-04-26 12:17 | -21.14306 | -47.77177 | 1825 ft | 9 kts | 275° |
| 2026-04-26 12:17 | -21.14294 | -47.77235 | 1825 ft | 6 kts | 288° |
| 2026-04-26 12:17 | -21.14268 | -47.77301 | 1824 ft | 15 kts | 308° |
| 2026-04-26 12:17 | -21.14171 | -47.77339 | 1824 ft | 13 kts | 345° |
| 2026-04-26 12:18 | -21.14086 | -47.77366 | 1823 ft | 11 kts | 343° |
| 2026-04-26 12:18 | -21.14015 | -47.77388 | 1822 ft | 9 kts | 344° |
| 2026-04-26 12:18 | -21.13959 | -47.77405 | 1822 ft | 7 kts | 344° |
| 2026-04-26 12:18 | -21.13891 | -47.77427 | 1821 ft | 12 kts | 343° |
| 2026-04-26 12:19 | -21.13857 | -47.77462 | 1821 ft | 5 kts | 273° |
| 2026-04-26 12:19 | -21.13865 | -47.77500 | 1821 ft | 6 kts | 253° |
| 2026-04-26 12:19 | -21.13873 | -47.77537 | 1821 ft | 4 kts | 263° |
| 2026-04-26 12:19 | -21.13878 | -47.77562 | 1821 ft | 3 kts | 256° |
| 2026-04-26 12:20 | -21.13885 | -47.77591 | 1821 ft | 3 kts | 254° |
| 2026-04-26 12:20 | -21.13886 | -47.77595 | 1821 ft | 0 kts | 254° |